sensor_id;sensor_type;location;lat;lon;timestamp;P1;durP1;ratioP1;P2;durP2;ratioP2
23596;SDS011;40226;50.874;4.394;2024-01-15T00:00:17;55.15;;;20.73;;
23596;SDS011;40226;50.874;4.394;2024-01-15T00:02:43;52.78;;;20.85;;
23596;SDS011;40226;50.874;4.394;2024-01-15T00:05:08;57.67;;;21.58;;
23596;SDS011;40226;50.874;4.394;2024-01-15T00:07:34;65.45;;;23.42;;
23596;SDS011;40226;50.874;4.394;2024-01-15T00:10:00;55.67;;;20.20;;
23596;SDS011;40226;50.874;4.394;2024-01-15T00:12:26;44.08;;;16.83;;
23596;SDS011;40226;50.874;4.394;2024-01-15T00:14:52;49.17;;;19.05;;
23596;SDS011;40226;50.874;4.394;2024-01-15T00:17:18;56.22;;;19.85;;
23596;SDS011;40226;50.874;4.394;2024-01-15T00:19:43;50.22;;;18.73;;
23596;SDS011;40226;50.874;4.394;2024-01-15T00:22:09;55.38;;;20.80;;
23596;SDS011;40226;50.874;4.394;2024-01-15T00:24:35;51.45;;;18.98;;
23596;SDS011;40226;50.874;4.394;2024-01-15T00:27:00;49.53;;;20.08;;
23596;SDS011;40226;50.874;4.394;2024-01-15T00:29:26;51.13;;;20.35;;
23596;SDS011;40226;50.874;4.394;2024-01-15T00:31:51;45.47;;;18.40;;
23596;SDS011;40226;50.874;4.394;2024-01-15T00:34:17;41.38;;;15.85;;
23596;SDS011;40226;50.874;4.394;2024-01-15T00:36:43;38.35;;;16.20;;
23596;SDS011;40226;50.874;4.394;2024-01-15T00:39:08;43.05;;;18.65;;
23596;SDS011;40226;50.874;4.394;2024-01-15T00:41:35;43.65;;;18.33;;
23596;SDS011;40226;50.874;4.394;2024-01-15T00:44:01;43.08;;;17.60;;
23596;SDS011;40226;50.874;4.394;2024-01-15T00:46:27;36.20;;;16.27;;
23596;SDS011;40226;50.874;4.394;2024-01-15T00:48:53;41.15;;;17.20;;
23596;SDS011;40226;50.874;4.394;2024-01-15T00:51:19;41.20;;;17.00;;
23596;SDS011;40226;50.874;4.394;2024-01-15T00:53:44;36.13;;;16.25;;
23596;SDS011;40226;50.874;4.394;2024-01-15T00:56:10;37.83;;;16.38;;
23596;SDS011;40226;50.874;4.394;2024-01-15T00:58:36;38.28;;;16.70;;
23596;SDS011;40226;50.874;4.394;2024-01-15T01:01:01;37.10;;;15.65;;
23596;SDS011;40226;50.874;4.394;2024-01-15T01:03:27;37.72;;;16.17;;
23596;SDS011;40226;50.874;4.394;2024-01-15T01:05:52;35.40;;;16.05;;
23596;SDS011;40226;50.874;4.394;2024-01-15T01:08:18;30.80;;;14.88;;
23596;SDS011;40226;50.874;4.394;2024-01-15T01:10:44;30.52;;;14.00;;
23596;SDS011;40226;50.874;4.394;2024-01-15T01:13:09;30.55;;;15.02;;
23596;SDS011;40226;50.874;4.394;2024-01-15T01:15:35;29.45;;;13.82;;
23596;SDS011;40226;50.874;4.394;2024-01-15T01:18:00;25.88;;;11.90;;
23596;SDS011;40226;50.874;4.394;2024-01-15T01:20:26;23.42;;;11.20;;
23596;SDS011;40226;50.874;4.394;2024-01-15T01:22:52;24.15;;;11.60;;
23596;SDS011;40226;50.874;4.394;2024-01-15T01:25:17;21.42;;;10.70;;
23596;SDS011;40226;50.874;4.394;2024-01-15T01:27:43;22.05;;;10.88;;
23596;SDS011;40226;50.874;4.394;2024-01-15T01:30:08;19.25;;;9.40;;
23596;SDS011;40226;50.874;4.394;2024-01-15T01:32:34;20.02;;;8.43;;
23596;SDS011;40226;50.874;4.394;2024-01-15T01:35:00;23.63;;;9.25;;
23596;SDS011;40226;50.874;4.394;2024-01-15T01:37:26;17.38;;;9.05;;
23596;SDS011;40226;50.874;4.394;2024-01-15T01:39:51;17.38;;;8.25;;
23596;SDS011;40226;50.874;4.394;2024-01-15T01:42:17;15.23;;;8.38;;
23596;SDS011;40226;50.874;4.394;2024-01-15T01:44:43;14.38;;;7.53;;
23596;SDS011;40226;50.874;4.394;2024-01-15T01:47:08;16.23;;;7.88;;
23596;SDS011;40226;50.874;4.394;2024-01-15T01:49:34;15.18;;;7.70;;
23596;SDS011;40226;50.874;4.394;2024-01-15T01:52:01;15.80;;;7.70;;
23596;SDS011;40226;50.874;4.394;2024-01-15T01:54:29;13.82;;;6.82;;
23596;SDS011;40226;50.874;4.394;2024-01-15T01:56:57;10.93;;;6.22;;
23596;SDS011;40226;50.874;4.394;2024-01-15T01:59:23;13.18;;;6.55;;
23596;SDS011;40226;50.874;4.394;2024-01-15T02:01:51;11.68;;;7.15;;
23596;SDS011;40226;50.874;4.394;2024-01-15T02:04:24;14.90;;;7.70;;
23596;SDS011;40226;50.874;4.394;2024-01-15T02:06:50;16.05;;;7.85;;
23596;SDS011;40226;50.874;4.394;2024-01-15T02:09:19;17.20;;;6.80;;
23596;SDS011;40226;50.874;4.394;2024-01-15T02:11:48;16.02;;;7.32;;
23596;SDS011;40226;50.874;4.394;2024-01-15T02:14:14;13.98;;;6.85;;
23596;SDS011;40226;50.874;4.394;2024-01-15T02:16:40;15.55;;;6.90;;
23596;SDS011;40226;50.874;4.394;2024-01-15T02:19:05;14.73;;;6.78;;
23596;SDS011;40226;50.874;4.394;2024-01-15T02:21:31;13.48;;;6.80;;
23596;SDS011;40226;50.874;4.394;2024-01-15T02:23:57;10.52;;;6.45;;
23596;SDS011;40226;50.874;4.394;2024-01-15T02:26:23;13.18;;;5.68;;
23596;SDS011;40226;50.874;4.394;2024-01-15T02:28:49;12.43;;;6.35;;
23596;SDS011;40226;50.874;4.394;2024-01-15T02:31:16;14.63;;;6.40;;
23596;SDS011;40226;50.874;4.394;2024-01-15T02:33:42;9.32;;;5.93;;
23596;SDS011;40226;50.874;4.394;2024-01-15T02:36:08;13.65;;;6.00;;
23596;SDS011;40226;50.874;4.394;2024-01-15T02:38:34;12.35;;;5.75;;
23596;SDS011;40226;50.874;4.394;2024-01-15T02:40:59;11.80;;;6.20;;
23596;SDS011;40226;50.874;4.394;2024-01-15T02:43:25;10.10;;;5.80;;
23596;SDS011;40226;50.874;4.394;2024-01-15T02:45:51;11.32;;;4.72;;
23596;SDS011;40226;50.874;4.394;2024-01-15T02:48:16;11.75;;;5.60;;
23596;SDS011;40226;50.874;4.394;2024-01-15T02:50:42;9.82;;;5.82;;
23596;SDS011;40226;50.874;4.394;2024-01-15T02:53:07;13.70;;;5.85;;
23596;SDS011;40226;50.874;4.394;2024-01-15T02:55:33;14.75;;;6.82;;
23596;SDS011;40226;50.874;4.394;2024-01-15T02:57:59;14.90;;;6.82;;
23596;SDS011;40226;50.874;4.394;2024-01-15T03:00:24;12.38;;;6.68;;
23596;SDS011;40226;50.874;4.394;2024-01-15T03:02:50;15.38;;;8.00;;
23596;SDS011;40226;50.874;4.394;2024-01-15T03:05:16;16.42;;;8.93;;
23596;SDS011;40226;50.874;4.394;2024-01-15T03:07:42;19.60;;;8.95;;
23596;SDS011;40226;50.874;4.394;2024-01-15T03:10:08;23.02;;;10.05;;
23596;SDS011;40226;50.874;4.394;2024-01-15T03:12:34;20.98;;;9.90;;
23596;SDS011;40226;50.874;4.394;2024-01-15T03:14:59;21.58;;;11.13;;
23596;SDS011;40226;50.874;4.394;2024-01-15T03:17:25;26.88;;;11.90;;
23596;SDS011;40226;50.874;4.394;2024-01-15T03:19:50;24.92;;;12.43;;
23596;SDS011;40226;50.874;4.394;2024-01-15T03:22:16;25.13;;;12.25;;
23596;SDS011;40226;50.874;4.394;2024-01-15T03:24:42;23.40;;;12.27;;
23596;SDS011;40226;50.874;4.394;2024-01-15T03:27:08;29.65;;;13.50;;
23596;SDS011;40226;50.874;4.394;2024-01-15T03:29:34;30.08;;;13.80;;
23596;SDS011;40226;50.874;4.394;2024-01-15T03:31:59;32.30;;;14.23;;
23596;SDS011;40226;50.874;4.394;2024-01-15T03:34:25;33.03;;;14.45;;
23596;SDS011;40226;50.874;4.394;2024-01-15T03:36:51;29.13;;;14.68;;
23596;SDS011;40226;50.874;4.394;2024-01-15T03:39:16;30.42;;;14.48;;
23596;SDS011;40226;50.874;4.394;2024-01-15T03:41:42;32.60;;;13.38;;
23596;SDS011;40226;50.874;4.394;2024-01-15T03:44:07;33.38;;;15.00;;
23596;SDS011;40226;50.874;4.394;2024-01-15T03:46:33;29.35;;;14.38;;
23596;SDS011;40226;50.874;4.394;2024-01-15T03:48:58;35.65;;;15.85;;
23596;SDS011;40226;50.874;4.394;2024-01-15T03:51:24;34.20;;;14.40;;
23596;SDS011;40226;50.874;4.394;2024-01-15T03:53:50;34.80;;;15.57;;
23596;SDS011;40226;50.874;4.394;2024-01-15T03:56:15;36.88;;;15.05;;
23596;SDS011;40226;50.874;4.394;2024-01-15T03:58:41;37.80;;;16.45;;
23596;SDS011;40226;50.874;4.394;2024-01-15T04:01:09;45.10;;;18.58;;
23596;SDS011;40226;50.874;4.394;2024-01-15T04:03:35;46.85;;;18.48;;
23596;SDS011;40226;50.874;4.394;2024-01-15T04:06:01;41.55;;;18.17;;
23596;SDS011;40226;50.874;4.394;2024-01-15T04:08:26;43.63;;;18.80;;
23596;SDS011;40226;50.874;4.394;2024-01-15T04:10:52;45.40;;;18.13;;
23596;SDS011;40226;50.874;4.394;2024-01-15T04:13:17;42.70;;;18.67;;
23596;SDS011;40226;50.874;4.394;2024-01-15T04:15:43;43.08;;;18.20;;
23596;SDS011;40226;50.874;4.394;2024-01-15T04:18:09;40.25;;;18.05;;
23596;SDS011;40226;50.874;4.394;2024-01-15T04:20:34;42.25;;;19.48;;
23596;SDS011;40226;50.874;4.394;2024-01-15T04:23:00;44.20;;;18.20;;
23596;SDS011;40226;50.874;4.394;2024-01-15T04:25:25;48.33;;;20.92;;
23596;SDS011;40226;50.874;4.394;2024-01-15T04:27:51;47.88;;;20.20;;
23596;SDS011;40226;50.874;4.394;2024-01-15T04:30:16;48.58;;;19.85;;
23596;SDS011;40226;50.874;4.394;2024-01-15T04:32:42;45.88;;;20.55;;
23596;SDS011;40226;50.874;4.394;2024-01-15T04:35:07;40.97;;;18.05;;
23596;SDS011;40226;50.874;4.394;2024-01-15T04:37:33;43.78;;;18.48;;
23596;SDS011;40226;50.874;4.394;2024-01-15T04:39:59;36.15;;;17.98;;
23596;SDS011;40226;50.874;4.394;2024-01-15T04:42:24;34.50;;;16.50;;
23596;SDS011;40226;50.874;4.394;2024-01-15T04:44:50;36.95;;;16.15;;
23596;SDS011;40226;50.874;4.394;2024-01-15T04:47:16;43.67;;;17.80;;
23596;SDS011;40226;50.874;4.394;2024-01-15T04:49:41;33.17;;;14.77;;
23596;SDS011;40226;50.874;4.394;2024-01-15T04:52:07;31.20;;;14.55;;
23596;SDS011;40226;50.874;4.394;2024-01-15T04:54:35;33.63;;;15.77;;
23596;SDS011;40226;50.874;4.394;2024-01-15T04:57:01;33.95;;;13.05;;
23596;SDS011;40226;50.874;4.394;2024-01-15T04:59:27;29.08;;;14.60;;
23596;SDS011;40226;50.874;4.394;2024-01-15T05:01:53;33.47;;;14.38;;
23596;SDS011;40226;50.874;4.394;2024-01-15T05:04:18;34.75;;;13.60;;
23596;SDS011;40226;50.874;4.394;2024-01-15T05:06:44;25.85;;;12.10;;
23596;SDS011;40226;50.874;4.394;2024-01-15T05:09:09;23.52;;;10.85;;
23596;SDS011;40226;50.874;4.394;2024-01-15T05:11:35;19.95;;;9.45;;
23596;SDS011;40226;50.874;4.394;2024-01-15T05:14:00;18.15;;;8.32;;
23596;SDS011;40226;50.874;4.394;2024-01-15T05:16:26;13.85;;;7.35;;
23596;SDS011;40226;50.874;4.394;2024-01-15T05:18:51;12.63;;;5.93;;
23596;SDS011;40226;50.874;4.394;2024-01-15T05:21:17;12.73;;;5.82;;
23596;SDS011;40226;50.874;4.394;2024-01-15T05:23:43;11.60;;;5.32;;
23596;SDS011;40226;50.874;4.394;2024-01-15T05:26:08;11.63;;;5.35;;
23596;SDS011;40226;50.874;4.394;2024-01-15T05:28:34;8.80;;;4.43;;
23596;SDS011;40226;50.874;4.394;2024-01-15T05:31:00;12.15;;;4.90;;
23596;SDS011;40226;50.874;4.394;2024-01-15T05:33:25;9.80;;;4.50;;
23596;SDS011;40226;50.874;4.394;2024-01-15T05:35:51;11.88;;;4.40;;
23596;SDS011;40226;50.874;4.394;2024-01-15T05:38:18;8.55;;;4.28;;
23596;SDS011;40226;50.874;4.394;2024-01-15T05:40:44;8.68;;;4.00;;
23596;SDS011;40226;50.874;4.394;2024-01-15T05:43:09;10.93;;;3.92;;
23596;SDS011;40226;50.874;4.394;2024-01-15T05:45:35;11.10;;;3.90;;
23596;SDS011;40226;50.874;4.394;2024-01-15T05:48:03;9.95;;;4.10;;
23596;SDS011;40226;50.874;4.394;2024-01-15T05:50:28;9.52;;;4.15;;
23596;SDS011;40226;50.874;4.394;2024-01-15T05:52:54;7.82;;;3.70;;
23596;SDS011;40226;50.874;4.394;2024-01-15T05:55:20;7.82;;;3.47;;
23596;SDS011;40226;50.874;4.394;2024-01-15T05:57:45;10.93;;;3.97;;
23596;SDS011;40226;50.874;4.394;2024-01-15T06:00:11;10.40;;;4.15;;
23596;SDS011;40226;50.874;4.394;2024-01-15T06:02:37;9.43;;;3.20;;
23596;SDS011;40226;50.874;4.394;2024-01-15T06:05:04;10.02;;;3.38;;
23596;SDS011;40226;50.874;4.394;2024-01-15T06:07:31;8.55;;;2.95;;
23596;SDS011;40226;50.874;4.394;2024-01-15T06:09:57;8.63;;;2.72;;
23596;SDS011;40226;50.874;4.394;2024-01-15T06:12:22;8.63;;;2.70;;
23596;SDS011;40226;50.874;4.394;2024-01-15T06:14:48;7.30;;;2.55;;
23596;SDS011;40226;50.874;4.394;2024-01-15T06:17:13;6.50;;;2.58;;
23596;SDS011;40226;50.874;4.394;2024-01-15T06:19:39;5.10;;;2.35;;
23596;SDS011;40226;50.874;4.394;2024-01-15T06:22:05;7.10;;;1.90;;
23596;SDS011;40226;50.874;4.394;2024-01-15T06:24:30;6.13;;;2.45;;
23596;SDS011;40226;50.874;4.394;2024-01-15T06:26:56;11.02;;;2.35;;
23596;SDS011;40226;50.874;4.394;2024-01-15T06:29:21;6.47;;;2.40;;
23596;SDS011;40226;50.874;4.394;2024-01-15T06:31:50;3.45;;;1.45;;
23596;SDS011;40226;50.874;4.394;2024-01-15T06:34:16;5.00;;;3.35;;
23596;SDS011;40226;50.874;4.394;2024-01-15T06:36:41;7.35;;;3.20;;
23596;SDS011;40226;50.874;4.394;2024-01-15T06:39:07;5.80;;;2.85;;
23596;SDS011;40226;50.874;4.394;2024-01-15T06:41:33;6.13;;;3.20;;
23596;SDS011;40226;50.874;4.394;2024-01-15T06:43:58;8.88;;;3.45;;
23596;SDS011;40226;50.874;4.394;2024-01-15T06:46:24;7.80;;;3.28;;
23596;SDS011;40226;50.874;4.394;2024-01-15T06:48:50;15.13;;;3.35;;
23596;SDS011;40226;50.874;4.394;2024-01-15T06:51:15;15.32;;;3.47;;
23596;SDS011;40226;50.874;4.394;2024-01-15T06:53:41;8.20;;;3.72;;
23596;SDS011;40226;50.874;4.394;2024-01-15T06:56:07;6.93;;;3.40;;
23596;SDS011;40226;50.874;4.394;2024-01-15T06:58:32;11.77;;;3.55;;
23596;SDS011;40226;50.874;4.394;2024-01-15T07:00:58;7.05;;;3.47;;
23596;SDS011;40226;50.874;4.394;2024-01-15T07:03:25;15.07;;;4.20;;
23596;SDS011;40226;50.874;4.394;2024-01-15T07:05:50;8.70;;;4.03;;
23596;SDS011;40226;50.874;4.394;2024-01-15T07:08:16;11.77;;;4.32;;
23596;SDS011;40226;50.874;4.394;2024-01-15T07:10:41;10.30;;;3.85;;
23596;SDS011;40226;50.874;4.394;2024-01-15T07:13:10;13.80;;;4.10;;
23596;SDS011;40226;50.874;4.394;2024-01-15T07:15:36;10.88;;;4.50;;
23596;SDS011;40226;50.874;4.394;2024-01-15T07:18:01;12.95;;;4.80;;
23596;SDS011;40226;50.874;4.394;2024-01-15T07:20:27;16.23;;;4.85;;
23596;SDS011;40226;50.874;4.394;2024-01-15T07:22:52;8.90;;;3.88;;
23596;SDS011;40226;50.874;4.394;2024-01-15T07:25:18;10.38;;;3.83;;
23596;SDS011;40226;50.874;4.394;2024-01-15T07:27:43;9.43;;;3.92;;
23596;SDS011;40226;50.874;4.394;2024-01-15T07:30:12;11.80;;;4.03;;
23596;SDS011;40226;50.874;4.394;2024-01-15T07:32:38;14.00;;;4.07;;
23596;SDS011;40226;50.874;4.394;2024-01-15T07:35:04;11.02;;;4.32;;
23596;SDS011;40226;50.874;4.394;2024-01-15T07:37:30;14.70;;;3.65;;
23596;SDS011;40226;50.874;4.394;2024-01-15T07:39:56;10.18;;;4.25;;
23596;SDS011;40226;50.874;4.394;2024-01-15T07:42:21;9.57;;;4.82;;
23596;SDS011;40226;50.874;4.394;2024-01-15T07:44:47;14.70;;;4.47;;
23596;SDS011;40226;50.874;4.394;2024-01-15T07:47:13;11.05;;;5.05;;
23596;SDS011;40226;50.874;4.394;2024-01-15T07:49:38;10.35;;;4.53;;
23596;SDS011;40226;50.874;4.394;2024-01-15T07:52:04;11.18;;;5.70;;
23596;SDS011;40226;50.874;4.394;2024-01-15T07:54:30;13.98;;;5.32;;
23596;SDS011;40226;50.874;4.394;2024-01-15T07:56:57;16.02;;;5.90;;
23596;SDS011;40226;50.874;4.394;2024-01-15T07:59:24;20.27;;;6.95;;
23596;SDS011;40226;50.874;4.394;2024-01-15T08:01:50;14.05;;;5.97;;
23596;SDS011;40226;50.874;4.394;2024-01-15T08:04:16;17.98;;;6.60;;
23596;SDS011;40226;50.874;4.394;2024-01-15T08:06:41;19.95;;;5.82;;
23596;SDS011;40226;50.874;4.394;2024-01-15T08:09:07;14.00;;;6.20;;
23596;SDS011;40226;50.874;4.394;2024-01-15T08:11:33;16.20;;;6.05;;
23596;SDS011;40226;50.874;4.394;2024-01-15T08:13:59;13.55;;;5.53;;
23596;SDS011;40226;50.874;4.394;2024-01-15T08:16:25;15.23;;;5.50;;
23596;SDS011;40226;50.874;4.394;2024-01-15T08:18:52;10.70;;;5.40;;
23596;SDS011;40226;50.874;4.394;2024-01-15T08:21:18;13.98;;;5.57;;
23596;SDS011;40226;50.874;4.394;2024-01-15T08:23:44;20.10;;;5.70;;
23596;SDS011;40226;50.874;4.394;2024-01-15T08:26:10;10.13;;;4.35;;
23596;SDS011;40226;50.874;4.394;2024-01-15T08:28:36;15.18;;;5.07;;
23596;SDS011;40226;50.874;4.394;2024-01-15T08:31:01;10.88;;;4.30;;
23596;SDS011;40226;50.874;4.394;2024-01-15T08:33:27;17.05;;;5.22;;
23596;SDS011;40226;50.874;4.394;2024-01-15T08:35:53;12.50;;;4.90;;
23596;SDS011;40226;50.874;4.394;2024-01-15T08:38:19;13.05;;;4.05;;
23596;SDS011;40226;50.874;4.394;2024-01-15T08:40:45;16.83;;;4.68;;
23596;SDS011;40226;50.874;4.394;2024-01-15T08:43:10;13.15;;;4.50;;
23596;SDS011;40226;50.874;4.394;2024-01-15T08:45:36;17.83;;;4.97;;
23596;SDS011;40226;50.874;4.394;2024-01-15T08:48:02;20.05;;;4.68;;
23596;SDS011;40226;50.874;4.394;2024-01-15T08:50:28;15.30;;;4.38;;
23596;SDS011;40226;50.874;4.394;2024-01-15T08:52:54;14.68;;;4.95;;
23596;SDS011;40226;50.874;4.394;2024-01-15T08:55:20;12.80;;;4.35;;
23596;SDS011;40226;50.874;4.394;2024-01-15T08:57:47;11.85;;;4.38;;
23596;SDS011;40226;50.874;4.394;2024-01-15T09:00:13;12.52;;;4.05;;
23596;SDS011;40226;50.874;4.394;2024-01-15T09:02:39;9.48;;;3.95;;
23596;SDS011;40226;50.874;4.394;2024-01-15T09:05:05;11.23;;;3.70;;
23596;SDS011;40226;50.874;4.394;2024-01-15T09:07:31;8.25;;;3.03;;
23596;SDS011;40226;50.874;4.394;2024-01-15T09:09:57;11.20;;;3.20;;
23596;SDS011;40226;50.874;4.394;2024-01-15T09:12:24;15.52;;;3.67;;
23596;SDS011;40226;50.874;4.394;2024-01-15T09:14:50;16.85;;;3.60;;
23596;SDS011;40226;50.874;4.394;2024-01-15T09:17:17;14.88;;;3.33;;
23596;SDS011;40226;50.874;4.394;2024-01-15T09:19:42;8.75;;;3.28;;
23596;SDS011;40226;50.874;4.394;2024-01-15T09:22:09;11.32;;;3.30;;
23596;SDS011;40226;50.874;4.394;2024-01-15T09:24:34;12.30;;;3.22;;
23596;SDS011;40226;50.874;4.394;2024-01-15T09:27:00;12.30;;;3.20;;
23596;SDS011;40226;50.874;4.394;2024-01-15T09:29:26;16.67;;;3.70;;
23596;SDS011;40226;50.874;4.394;2024-01-15T09:31:51;12.10;;;3.40;;
23596;SDS011;40226;50.874;4.394;2024-01-15T09:34:17;15.65;;;3.20;;
23596;SDS011;40226;50.874;4.394;2024-01-15T09:36:43;10.95;;;3.30;;
23596;SDS011;40226;50.874;4.394;2024-01-15T09:39:09;9.48;;;2.83;;
23596;SDS011;40226;50.874;4.394;2024-01-15T09:41:36;13.10;;;3.50;;
23596;SDS011;40226;50.874;4.394;2024-01-15T09:44:05;14.35;;;3.10;;
23596;SDS011;40226;50.874;4.394;2024-01-15T09:46:34;11.20;;;3.28;;
23596;SDS011;40226;50.874;4.394;2024-01-15T09:49:00;6.82;;;2.75;;
23596;SDS011;40226;50.874;4.394;2024-01-15T09:51:30;9.98;;;2.97;;
23596;SDS011;40226;50.874;4.394;2024-01-15T09:53:57;16.23;;;3.08;;
23596;SDS011;40226;50.874;4.394;2024-01-15T09:56:23;11.13;;;2.70;;
23596;SDS011;40226;50.874;4.394;2024-01-15T09:58:49;11.30;;;2.67;;
23596;SDS011;40226;50.874;4.394;2024-01-15T10:01:17;14.90;;;3.30;;
23596;SDS011;40226;50.874;4.394;2024-01-15T10:03:46;10.93;;;2.85;;
23596;SDS011;40226;50.874;4.394;2024-01-15T10:06:14;11.88;;;2.80;;
23596;SDS011;40226;50.874;4.394;2024-01-15T10:08:50;12.90;;;2.90;;
23596;SDS011;40226;50.874;4.394;2024-01-15T10:11:17;12.77;;;3.25;;
23596;SDS011;40226;50.874;4.394;2024-01-15T10:13:48;13.68;;;3.10;;
23596;SDS011;40226;50.874;4.394;2024-01-15T10:16:18;13.82;;;2.72;;
23596;SDS011;40226;50.874;4.394;2024-01-15T10:18:44;10.32;;;2.60;;
23596;SDS011;40226;50.874;4.394;2024-01-15T10:21:09;11.40;;;2.78;;
23596;SDS011;40226;50.874;4.394;2024-01-15T10:23:35;12.35;;;3.50;;
23596;SDS011;40226;50.874;4.394;2024-01-15T10:26:01;12.45;;;3.08;;
23596;SDS011;40226;50.874;4.394;2024-01-15T10:28:27;10.65;;;3.15;;
23596;SDS011;40226;50.874;4.394;2024-01-15T10:30:55;9.82;;;2.55;;
23596;SDS011;40226;50.874;4.394;2024-01-15T10:33:22;11.55;;;2.50;;
23596;SDS011;40226;50.874;4.394;2024-01-15T10:35:54;11.40;;;2.47;;
23596;SDS011;40226;50.874;4.394;2024-01-15T10:38:21;10.20;;;2.35;;
23596;SDS011;40226;50.874;4.394;2024-01-15T10:40:48;13.55;;;2.15;;
23596;SDS011;40226;50.874;4.394;2024-01-15T10:43:17;10.85;;;2.53;;
23596;SDS011;40226;50.874;4.394;2024-01-15T10:45:44;12.45;;;2.55;;
23596;SDS011;40226;50.874;4.394;2024-01-15T10:48:14;6.70;;;2.03;;
23596;SDS011;40226;50.874;4.394;2024-01-15T10:50:41;9.95;;;2.30;;
23596;SDS011;40226;50.874;4.394;2024-01-15T10:53:08;9.07;;;2.00;;
23596;SDS011;40226;50.874;4.394;2024-01-15T10:55:35;10.50;;;2.33;;
23596;SDS011;40226;50.874;4.394;2024-01-15T10:58:02;13.75;;;2.85;;
23596;SDS011;40226;50.874;4.394;2024-01-15T11:00:32;12.90;;;2.25;;
23596;SDS011;40226;50.874;4.394;2024-01-15T11:03:00;10.57;;;2.30;;
23596;SDS011;40226;50.874;4.394;2024-01-15T11:05:27;8.40;;;2.45;;
23596;SDS011;40226;50.874;4.394;2024-01-15T11:07:56;11.52;;;2.47;;
23596;SDS011;40226;50.874;4.394;2024-01-15T11:13:10;8.38;;;2.55;;
23596;SDS011;40226;50.874;4.394;2024-01-15T11:16:08;11.90;;;2.70;;
23596;SDS011;40226;50.874;4.394;2024-01-15T11:18:36;9.13;;;2.50;;
23596;SDS011;40226;50.874;4.394;2024-01-15T11:28:55;9.90;;;2.38;;
23596;SDS011;40226;50.874;4.394;2024-01-15T11:34:08;10.05;;;2.22;;
23596;SDS011;40226;50.874;4.394;2024-01-15T11:42:00;10.25;;;2.22;;
23596;SDS011;40226;50.874;4.394;2024-01-15T11:44:30;9.07;;;2.10;;
23596;SDS011;40226;50.874;4.394;2024-01-15T11:47:00;13.85;;;2.40;;
23596;SDS011;40226;50.874;4.394;2024-01-15T11:52:02;9.55;;;2.00;;
23596;SDS011;40226;50.874;4.394;2024-01-15T11:54:31;6.53;;;2.15;;
23596;SDS011;40226;50.874;4.394;2024-01-15T11:57:03;8.80;;;2.22;;
23596;SDS011;40226;50.874;4.394;2024-01-15T11:59:34;11.40;;;2.55;;
23596;SDS011;40226;50.874;4.394;2024-01-15T12:02:00;12.02;;;2.33;;
23596;SDS011;40226;50.874;4.394;2024-01-15T12:04:26;8.35;;;1.80;;
23596;SDS011;40226;50.874;4.394;2024-01-15T12:06:52;7.07;;;1.85;;
23596;SDS011;40226;50.874;4.394;2024-01-15T12:09:21;5.65;;;1.80;;
23596;SDS011;40226;50.874;4.394;2024-01-15T12:11:51;6.32;;;2.20;;
23596;SDS011;40226;50.874;4.394;2024-01-15T12:14:24;9.05;;;1.90;;
23596;SDS011;40226;50.874;4.394;2024-01-15T12:16:51;15.85;;;3.13;;
23596;SDS011;40226;50.874;4.394;2024-01-15T12:19:17;8.85;;;2.20;;
23596;SDS011;40226;50.874;4.394;2024-01-15T12:21:44;7.30;;;2.50;;
23596;SDS011;40226;50.874;4.394;2024-01-15T12:24:10;14.32;;;2.40;;
23596;SDS011;40226;50.874;4.394;2024-01-15T12:26:35;6.78;;;2.17;;
23596;SDS011;40226;50.874;4.394;2024-01-15T12:29:02;10.77;;;2.90;;
23596;SDS011;40226;50.874;4.394;2024-01-15T12:31:28;10.98;;;2.28;;
23596;SDS011;40226;50.874;4.394;2024-01-15T12:33:55;13.18;;;2.47;;
23596;SDS011;40226;50.874;4.394;2024-01-15T12:36:21;9.93;;;2.47;;
23596;SDS011;40226;50.874;4.394;2024-01-15T12:38:47;11.95;;;2.03;;
23596;SDS011;40226;50.874;4.394;2024-01-15T12:41:12;9.75;;;2.65;;
23596;SDS011;40226;50.874;4.394;2024-01-15T12:43:38;10.57;;;2.25;;
23596;SDS011;40226;50.874;4.394;2024-01-15T12:46:05;10.82;;;2.30;;
23596;SDS011;40226;50.874;4.394;2024-01-15T12:48:31;10.52;;;2.25;;
23596;SDS011;40226;50.874;4.394;2024-01-15T12:50:56;8.65;;;2.33;;
23596;SDS011;40226;50.874;4.394;2024-01-15T12:53:22;9.65;;;3.15;;
23596;SDS011;40226;50.874;4.394;2024-01-15T12:55:47;10.35;;;2.30;;
23596;SDS011;40226;50.874;4.394;2024-01-15T12:58:13;10.38;;;2.30;;
23596;SDS011;40226;50.874;4.394;2024-01-15T13:00:39;15.25;;;3.42;;
23596;SDS011;40226;50.874;4.394;2024-01-15T13:03:04;14.25;;;2.78;;
23596;SDS011;40226;50.874;4.394;2024-01-15T13:05:31;7.60;;;2.38;;
23596;SDS011;40226;50.874;4.394;2024-01-15T13:07:57;14.38;;;2.38;;
23596;SDS011;40226;50.874;4.394;2024-01-15T13:10:24;11.63;;;2.53;;
23596;SDS011;40226;50.874;4.394;2024-01-15T13:12:50;8.68;;;2.53;;
23596;SDS011;40226;50.874;4.394;2024-01-15T13:15:16;11.38;;;2.72;;
23596;SDS011;40226;50.874;4.394;2024-01-15T13:17:42;11.13;;;2.50;;
23596;SDS011;40226;50.874;4.394;2024-01-15T13:20:08;12.02;;;1.80;;
23596;SDS011;40226;50.874;4.394;2024-01-15T13:22:34;5.78;;;1.88;;
23596;SDS011;40226;50.874;4.394;2024-01-15T13:25:00;10.30;;;2.53;;
23596;SDS011;40226;50.874;4.394;2024-01-15T13:27:25;17.20;;;2.33;;
23596;SDS011;40226;50.874;4.394;2024-01-15T13:29:51;8.77;;;2.33;;
23596;SDS011;40226;50.874;4.394;2024-01-15T13:32:35;11.32;;;2.70;;
23596;SDS011;40226;50.874;4.394;2024-01-15T13:35:00;10.95;;;2.58;;
23596;SDS011;40226;50.874;4.394;2024-01-15T13:37:27;9.60;;;2.35;;
23596;SDS011;40226;50.874;4.394;2024-01-15T13:39:53;16.30;;;2.78;;
23596;SDS011;40226;50.874;4.394;2024-01-15T13:42:18;16.38;;;2.38;;
23596;SDS011;40226;50.874;4.394;2024-01-15T13:44:46;14.10;;;2.70;;
23596;SDS011;40226;50.874;4.394;2024-01-15T13:47:12;17.13;;;3.10;;
23596;SDS011;40226;50.874;4.394;2024-01-15T13:49:38;12.23;;;2.42;;
23596;SDS011;40226;50.874;4.394;2024-01-15T13:52:04;10.65;;;2.10;;
23596;SDS011;40226;50.874;4.394;2024-01-15T13:54:29;13.38;;;2.90;;
23596;SDS011;40226;50.874;4.394;2024-01-15T13:56:55;7.57;;;1.75;;
23596;SDS011;40226;50.874;4.394;2024-01-15T13:59:21;3.67;;;1.52;;
23596;SDS011;40226;50.874;4.394;2024-01-15T14:01:48;3.03;;;1.70;;
23596;SDS011;40226;50.874;4.394;2024-01-15T14:04:13;2.63;;;1.70;;
23596;SDS011;40226;50.874;4.394;2024-01-15T14:06:39;5.13;;;2.47;;
23596;SDS011;40226;50.874;4.394;2024-01-15T14:09:04;11.75;;;4.22;;
23596;SDS011;40226;50.874;4.394;2024-01-15T14:11:30;8.32;;;3.20;;
23596;SDS011;40226;50.874;4.394;2024-01-15T14:13:56;9.65;;;3.47;;
23596;SDS011;40226;50.874;4.394;2024-01-15T14:16:22;8.82;;;3.28;;
23596;SDS011;40226;50.874;4.394;2024-01-15T14:18:47;9.20;;;3.85;;
23596;SDS011;40226;50.874;4.394;2024-01-15T14:21:13;8.55;;;3.80;;
23596;SDS011;40226;50.874;4.394;2024-01-15T14:23:39;11.43;;;4.13;;
23596;SDS011;40226;50.874;4.394;2024-01-15T14:26:05;11.55;;;3.40;;
23596;SDS011;40226;50.874;4.394;2024-01-15T14:28:30;10.35;;;3.25;;
23596;SDS011;40226;50.874;4.394;2024-01-15T14:30:56;14.63;;;3.30;;
23596;SDS011;40226;50.874;4.394;2024-01-15T14:33:25;16.83;;;4.45;;
23596;SDS011;40226;50.874;4.394;2024-01-15T14:35:51;7.03;;;2.47;;
23596;SDS011;40226;50.874;4.394;2024-01-15T14:38:16;8.07;;;2.20;;
23596;SDS011;40226;50.874;4.394;2024-01-15T14:40:42;7.18;;;1.98;;
23596;SDS011;40226;50.874;4.394;2024-01-15T14:43:09;6.55;;;1.90;;
23596;SDS011;40226;50.874;4.394;2024-01-15T14:45:35;8.00;;;1.90;;
23596;SDS011;40226;50.874;4.394;2024-01-15T14:48:00;8.43;;;1.73;;